sensor_id;sensor_type;location;lat;lon;timestamp;pressure;altitude;pressure_sealevel;temperature;humidity
78717;BME280;68045;50.042;14.432;2023-09-19T00:01:16;97752.34;;;17.80;88.79
78717;BME280;68045;50.042;14.432;2023-09-19T00:05:20;97757.28;;;17.68;89.46
78717;BME280;68045;50.042;14.432;2023-09-19T00:09:24;97756.50;;;17.67;89.37
78717;BME280;68045;50.042;14.432;2023-09-19T00:13:28;97764.16;;;17.55;90.08
78717;BME280;68045;50.042;14.432;2023-09-19T00:17:29;97758.97;;;17.64;89.49
78717;BME280;68045;50.042;14.432;2023-09-19T00:21:32;97764.88;;;17.61;89.34
78717;BME280;68045;50.042;14.432;2023-09-19T00:25:33;97772.88;;;17.42;90.94
78717;BME280;68045;50.042;14.432;2023-09-19T00:29:35;97768.31;;;17.42;91.36
78717;BME280;68045;50.042;14.432;2023-09-19T00:33:36;97780.19;;;17.31;91.92
78717;BME280;68045;50.042;14.432;2023-09-19T00:37:37;97785.56;;;17.26;91.76
78717;BME280;68045;50.042;14.432;2023-09-19T00:41:40;97773.41;;;17.20;90.44
78717;BME280;68045;50.042;14.432;2023-09-19T00:45:47;97791.09;;;17.11;89.66
78717;BME280;68045;50.042;14.432;2023-09-19T00:49:49;97795.91;;;17.09;89.79
78717;BME280;68045;50.042;14.432;2023-09-19T00:53:50;97791.38;;;17.09;89.45
78717;BME280;68045;50.042;14.432;2023-09-19T00:57:52;97786.53;;;17.11;89.50
78717;BME280;68045;50.042;14.432;2023-09-19T01:01:54;97776.16;;;17.10;89.59
78717;BME280;68045;50.042;14.432;2023-09-19T01:05:56;97771.97;;;17.03;88.35
78717;BME280;68045;50.042;14.432;2023-09-19T01:09:57;97775.22;;;17.00;88.50
78717;BME280;68045;50.042;14.432;2023-09-19T01:18:27;97778.09;;;17.04;88.45
78717;BME280;68045;50.042;14.432;2023-09-19T01:31:10;97788.84;;;16.99;87.04
78717;BME280;68045;50.042;14.432;2023-09-19T01:35:12;97784.75;;;17.07;nan
78717;BME280;68045;50.042;14.432;2023-09-19T01:39:13;97778.16;;;16.99;nan
78717;BME280;68045;50.042;14.432;2023-09-19T01:43:33;97785.88;;;17.00;nan
78717;BME280;68045;50.042;14.432;2023-09-19T01:48:22;97777.75;;;16.87;nan
78717;BME280;68045;50.042;14.432;2023-09-19T01:52:28;97791.41;;;16.80;nan
78717;BME280;68045;50.042;14.432;2023-09-19T01:56:49;97778.91;;;16.75;nan
78717;BME280;68045;50.042;14.432;2023-09-19T02:00:51;97785.59;;;16.78;nan
78717;BME280;68045;50.042;14.432;2023-09-19T02:04:54;97784.09;;;16.91;nan
78717;BME280;68045;50.042;14.432;2023-09-19T02:08:55;97774.75;;;16.93;nan
78717;BME280;68045;50.042;14.432;2023-09-19T02:12:56;97787.28;;;16.93;nan
78717;BME280;68045;50.042;14.432;2023-09-19T02:16:57;97787.03;;;16.89;nan
78717;BME280;68045;50.042;14.432;2023-09-19T02:20:59;97776.38;;;16.89;nan
78717;BME280;68045;50.042;14.432;2023-09-19T02:24:59;97783.72;;;16.79;nan
78717;BME280;68045;50.042;14.432;2023-09-19T02:29:01;97780.00;;;16.74;nan
78717;BME280;68045;50.042;14.432;2023-09-19T02:33:05;97773.69;;;16.65;nan
78717;BME280;68045;50.042;14.432;2023-09-19T02:37:05;97773.97;;;16.64;nan
78717;BME280;68045;50.042;14.432;2023-09-19T02:41:06;97776.03;;;16.72;nan
78717;BME280;68045;50.042;14.432;2023-09-19T02:45:08;97772.25;;;16.78;nan
78717;BME280;68045;50.042;14.432;2023-09-19T02:49:10;97778.88;;;16.81;nan
78717;BME280;68045;50.042;14.432;2023-09-19T02:53:11;97767.38;;;16.85;nan
78717;BME280;68045;50.042;14.432;2023-09-19T02:57:14;97772.75;;;16.80;nan
78717;BME280;68045;50.042;14.432;2023-09-19T03:01:17;97765.69;;;16.94;nan
78717;BME280;68045;50.042;14.432;2023-09-19T03:05:19;97773.09;;;16.97;nan
78717;BME280;68045;50.042;14.432;2023-09-19T03:09:21;97753.44;;;16.93;nan
78717;BME280;68045;50.042;14.432;2023-09-19T03:13:24;97755.22;;;16.98;nan
78717;BME280;68045;50.042;14.432;2023-09-19T03:17:25;97754.69;;;17.01;nan
78717;BME280;68045;50.042;14.432;2023-09-19T03:21:26;97766.00;;;17.12;nan
78717;BME280;68045;50.042;14.432;2023-09-19T03:25:27;97758.59;;;17.09;nan
78717;BME280;68045;50.042;14.432;2023-09-19T03:29:29;97763.56;;;17.15;nan
78717;BME280;68045;50.042;14.432;2023-09-19T03:33:32;97762.53;;;17.11;nan
78717;BME280;68045;50.042;14.432;2023-09-19T03:37:34;97775.66;;;17.08;nan
78717;BME280;68045;50.042;14.432;2023-09-19T03:41:36;97760.22;;;17.05;nan
78717;BME280;68045;50.042;14.432;2023-09-19T03:45:38;97759.97;;;17.06;nan
78717;BME280;68045;50.042;14.432;2023-09-19T03:49:39;97758.63;;;17.03;nan
78717;BME280;68045;50.042;14.432;2023-09-19T03:53:40;97766.09;;;17.07;nan
78717;BME280;68045;50.042;14.432;2023-09-19T03:57:41;97765.00;;;17.08;nan
78717;BME280;68045;50.042;14.432;2023-09-19T04:01:42;97776.22;;;17.05;nan
78717;BME280;68045;50.042;14.432;2023-09-19T04:05:43;97780.41;;;17.11;nan
78717;BME280;68045;50.042;14.432;2023-09-19T04:09:44;97775.09;;;17.11;nan
78717;BME280;68045;50.042;14.432;2023-09-19T04:13:46;97787.00;;;17.18;nan
78717;BME280;68045;50.042;14.432;2023-09-19T04:17:47;97787.78;;;17.19;nan
78717;BME280;68045;50.042;14.432;2023-09-19T04:21:47;97788.81;;;17.23;nan
78717;BME280;68045;50.042;14.432;2023-09-19T04:25:48;97803.69;;;17.29;nan
78717;BME280;68045;50.042;14.432;2023-09-19T04:29:49;97807.72;;;17.26;nan
78717;BME280;68045;50.042;14.432;2023-09-19T04:33:53;97801.19;;;17.38;nan
78717;BME280;68045;50.042;14.432;2023-09-19T04:37:54;97816.63;;;17.41;nan
78717;BME280;68045;50.042;14.432;2023-09-19T04:41:55;97815.56;;;17.42;nan
78717;BME280;68045;50.042;14.432;2023-09-19T04:45:56;97830.97;;;17.45;nan
78717;BME280;68045;50.042;14.432;2023-09-19T04:49:56;97827.03;;;17.42;nan
78717;BME280;68045;50.042;14.432;2023-09-19T04:54:00;97843.66;;;17.34;nan
78717;BME280;68045;50.042;14.432;2023-09-19T04:58:00;97838.19;;;17.44;nan
78717;BME280;68045;50.042;14.432;2023-09-19T05:02:03;97849.72;;;17.40;nan
78717;BME280;68045;50.042;14.432;2023-09-19T05:06:04;97862.25;;;17.39;nan
78717;BME280;68045;50.042;14.432;2023-09-19T05:10:06;97858.75;;;17.44;nan
78717;BME280;68045;50.042;14.432;2023-09-19T05:14:07;97860.78;;;17.52;nan
78717;BME280;68045;50.042;14.432;2023-09-19T05:18:08;97874.25;;;17.42;nan
78717;BME280;68045;50.042;14.432;2023-09-19T05:22:09;97868.03;;;17.46;nan
78717;BME280;68045;50.042;14.432;2023-09-19T05:26:09;97885.38;;;17.49;nan
78717;BME280;68045;50.042;14.432;2023-09-19T05:30:11;97892.19;;;17.60;nan
78717;BME280;68045;50.042;14.432;2023-09-19T05:34:14;97886.28;;;17.63;nan
78717;BME280;68045;50.042;14.432;2023-09-19T05:38:15;97897.22;;;17.62;nan
78717;BME280;68045;50.042;14.432;2023-09-19T05:42:19;97894.34;;;17.58;nan
78717;BME280;68045;50.042;14.432;2023-09-19T05:46:20;97900.72;;;17.62;nan
78717;BME280;68045;50.042;14.432;2023-09-19T05:50:21;97899.81;;;17.72;nan
78717;BME280;68045;50.042;14.432;2023-09-19T05:54:22;97897.41;;;17.70;nan
78717;BME280;68045;50.042;14.432;2023-09-19T05:58:23;97909.06;;;17.79;nan
78717;BME280;68045;50.042;14.432;2023-09-19T06:02:24;97907.16;;;17.85;nan
78717;BME280;68045;50.042;14.432;2023-09-19T06:06:29;97917.09;;;17.79;nan
78717;BME280;68045;50.042;14.432;2023-09-19T06:10:30;97929.84;;;17.82;nan
78717;BME280;68045;50.042;14.432;2023-09-19T06:14:32;97927.19;;;17.82;nan
78717;BME280;68045;50.042;14.432;2023-09-19T06:18:33;97927.88;;;17.93;nan
78717;BME280;68045;50.042;14.432;2023-09-19T06:22:37;97942.69;;;18.04;nan
78717;BME280;68045;50.042;14.432;2023-09-19T06:26:38;97955.63;;;18.16;nan
78717;BME280;68045;50.042;14.432;2023-09-19T06:30:39;97956.34;;;18.22;nan
78717;BME280;68045;50.042;14.432;2023-09-19T06:34:43;97961.94;;;18.25;nan
78717;BME280;68045;50.042;14.432;2023-09-19T06:38:44;97970.97;;;18.48;nan
78717;BME280;68045;50.042;14.432;2023-09-19T06:42:47;97984.91;;;18.64;nan
78717;BME280;68045;50.042;14.432;2023-09-19T06:46:50;97983.56;;;18.66;nan
78717;BME280;68045;50.042;14.432;2023-09-19T06:50:56;97981.94;;;18.65;nan
78717;BME280;68045;50.042;14.432;2023-09-19T06:54:59;97981.75;;;18.62;nan
78717;BME280;68045;50.042;14.432;2023-09-19T06:58:59;97999.47;;;18.77;nan
78717;BME280;68045;50.042;14.432;2023-09-19T07:03:05;97995.63;;;18.64;nan
78717;BME280;68045;50.042;14.432;2023-09-19T07:07:08;97988.69;;;18.63;nan
78717;BME280;68045;50.042;14.432;2023-09-19T07:11:11;97995.38;;;18.60;nan
78717;BME280;68045;50.042;14.432;2023-09-19T07:15:12;97997.91;;;18.76;nan
78717;BME280;68045;50.042;14.432;2023-09-19T07:19:13;98004.81;;;18.96;nan
78717;BME280;68045;50.042;14.432;2023-09-19T07:23:16;98005.75;;;19.05;nan
78717;BME280;68045;50.042;14.432;2023-09-19T07:27:18;98006.06;;;19.03;nan
78717;BME280;68045;50.042;14.432;2023-09-19T07:31:19;98009.41;;;19.09;nan
78717;BME280;68045;50.042;14.432;2023-09-19T07:35:20;98010.56;;;19.21;nan
78717;BME280;68045;50.042;14.432;2023-09-19T07:39:20;98016.78;;;19.49;nan
78717;BME280;68045;50.042;14.432;2023-09-19T07:43:21;98014.78;;;19.60;nan
78717;BME280;68045;50.042;14.432;2023-09-19T07:47:23;98019.84;;;19.75;nan
78717;BME280;68045;50.042;14.432;2023-09-19T07:51:23;98010.09;;;19.66;nan
78717;BME280;68045;50.042;14.432;2023-09-19T07:55:24;98007.44;;;19.80;nan
78717;BME280;68045;50.042;14.432;2023-09-19T07:59:26;98015.31;;;20.17;nan
78717;BME280;68045;50.042;14.432;2023-09-19T08:03:27;98015.09;;;20.41;nan
78717;BME280;68045;50.042;14.432;2023-09-19T08:07:28;98023.03;;;20.33;nan
78717;BME280;68045;50.042;14.432;2023-09-19T08:11:29;98024.69;;;20.70;nan
78717;BME280;68045;50.042;14.432;2023-09-19T08:15:32;98023.09;;;21.05;nan
78717;BME280;68045;50.042;14.432;2023-09-19T08:19:32;98024.06;;;22.07;nan
78717;BME280;68045;50.042;14.432;2023-09-19T08:23:33;98023.44;;;22.10;nan
78717;BME280;68045;50.042;14.432;2023-09-19T08:27:34;98053.22;;;21.38;nan
78717;BME280;68045;50.042;14.432;2023-09-19T08:31:36;98040.09;;;20.64;nan
78717;BME280;68045;50.042;14.432;2023-09-19T08:35:38;98046.88;;;20.34;nan
78717;BME280;68045;50.042;14.432;2023-09-19T08:39:40;98056.81;;;20.34;nan
78717;BME280;68045;50.042;14.432;2023-09-19T08:43:41;98058.09;;;20.50;nan
78717;BME280;68045;50.042;14.432;2023-09-19T08:47:52;98069.03;;;20.53;nan
78717;BME280;68045;50.042;14.432;2023-09-19T08:52:05;98057.59;;;20.75;nan
78717;BME280;68045;50.042;14.432;2023-09-19T08:56:10;98066.84;;;21.42;nan
78717;BME280;68045;50.042;14.432;2023-09-19T09:00:12;98068.72;;;21.41;nan
78717;BME280;68045;50.042;14.432;2023-09-19T09:04:15;98072.72;;;23.02;nan
78717;BME280;68045;50.042;14.432;2023-09-19T09:08:17;98071.03;;;24.05;nan
78717;BME280;68045;50.042;14.432;2023-09-19T09:12:20;98076.31;;;24.40;nan
78717;BME280;68045;50.042;14.432;2023-09-19T09:16:22;98077.25;;;25.90;nan
78717;BME280;68045;50.042;14.432;2023-09-19T09:20:26;98071.50;;;29.54;nan
78717;BME280;68045;50.042;14.432;2023-09-19T09:24:30;98061.19;;;29.87;nan
78717;BME280;68045;50.042;14.432;2023-09-19T09:28:35;98069.44;;;27.51;nan
78717;BME280;68045;50.042;14.432;2023-09-19T09:32:38;98077.34;;;25.28;nan
78717;BME280;68045;50.042;14.432;2023-09-19T09:36:40;98066.16;;;27.18;nan
78717;BME280;68045;50.042;14.432;2023-09-19T09:40:49;98081.84;;;26.47;nan
78717;BME280;68045;50.042;14.432;2023-09-19T09:49:24;98071.31;;;27.07;nan
78717;BME280;68045;50.042;14.432;2023-09-19T09:53:28;98063.91;;;30.55;nan
78717;BME280;68045;50.042;14.432;2023-09-19T09:57:32;98052.66;;;28.05;nan
78717;BME280;68045;50.042;14.432;2023-09-19T10:01:47;98048.53;;;26.10;nan
78717;BME280;68045;50.042;14.432;2023-09-19T10:05:53;98068.16;;;29.61;nan
78717;BME280;68045;50.042;14.432;2023-09-19T10:09:56;98055.28;;;28.49;nan
78717;BME280;68045;50.042;14.432;2023-09-19T10:14:06;98072.50;;;29.08;nan
78717;BME280;68045;50.042;14.432;2023-09-19T10:18:10;98068.00;;;27.14;nan
78717;BME280;68045;50.042;14.432;2023-09-19T10:22:19;98085.72;;;28.58;nan
78717;BME280;68045;50.042;14.432;2023-09-19T10:26:23;98087.75;;;29.70;nan
78717;BME280;68045;50.042;14.432;2023-09-19T10:30:26;98078.81;;;28.29;nan
78717;BME280;68045;50.042;14.432;2023-09-19T10:34:29;98081.22;;;26.05;nan
78717;BME280;68045;50.042;14.432;2023-09-19T10:38:32;98082.28;;;27.82;nan
78717;BME280;68045;50.042;14.432;2023-09-19T10:42:38;98068.50;;;28.86;nan
78717;BME280;68045;50.042;14.432;2023-09-19T10:46:42;98070.38;;;33.08;nan
78717;BME280;68045;50.042;14.432;2023-09-19T10:50:47;98060.16;;;36.62;nan
78717;BME280;68045;50.042;14.432;2023-09-19T10:54:52;98079.16;;;33.59;nan
78717;BME280;68045;50.042;14.432;2023-09-19T10:59:12;98083.91;;;33.77;nan
78717;BME280;68045;50.042;14.432;2023-09-19T11:03:18;98096.72;;;35.30;nan
78717;BME280;68045;50.042;14.432;2023-09-19T11:07:20;98076.06;;;35.11;nan
78717;BME280;68045;50.042;14.432;2023-09-19T11:11:40;98075.34;;;34.25;nan
78717;BME280;68045;50.042;14.432;2023-09-19T11:28:29;98067.72;;;29.20;nan
78717;BME280;68045;50.042;14.432;2023-09-19T11:49:52;98053.94;;;27.52;nan
78717;BME280;68045;50.042;14.432;2023-09-19T11:53:57;98054.41;;;27.26;nan
78717;BME280;68045;50.042;14.432;2023-09-19T11:58:01;98051.19;;;26.96;nan
78717;BME280;68045;50.042;14.432;2023-09-19T12:02:06;98055.06;;;26.82;nan
78717;BME280;68045;50.042;14.432;2023-09-19T12:06:12;98068.53;;;27.75;nan
78717;BME280;68045;50.042;14.432;2023-09-19T12:10:15;98057.84;;;27.38;nan
78717;BME280;68045;50.042;14.432;2023-09-19T12:14:25;98057.22;;;30.26;nan
78717;BME280;68045;50.042;14.432;2023-09-19T12:18:28;98056.56;;;34.09;nan
78717;BME280;68045;50.042;14.432;2023-09-19T12:22:39;98052.75;;;33.05;nan
78717;BME280;68045;50.042;14.432;2023-09-19T12:26:41;98048.81;;;36.08;nan
78717;BME280;68045;50.042;14.432;2023-09-19T12:30:42;98057.00;;;38.39;nan
78717;BME280;68045;50.042;14.432;2023-09-19T12:34:50;98048.75;;;40.56;nan
78717;BME280;68045;50.042;14.432;2023-09-19T12:38:52;98045.84;;;39.82;nan
78717;BME280;68045;50.042;14.432;2023-09-19T12:42:54;98063.84;;;36.85;nan
78717;BME280;68045;50.042;14.432;2023-09-19T12:47:10;98050.31;;;34.51;nan
78717;BME280;68045;50.042;14.432;2023-09-19T12:51:12;98036.38;;;37.16;nan
78717;BME280;68045;50.042;14.432;2023-09-19T12:55:30;98040.25;;;37.19;nan
78717;BME280;68045;50.042;14.432;2023-09-19T12:59:33;98047.28;;;37.54;nan
78717;BME280;68045;50.042;14.432;2023-09-19T13:03:36;98039.19;;;38.20;nan
78717;BME280;68045;50.042;14.432;2023-09-19T13:07:40;98039.66;;;37.38;nan
78717;BME280;68045;50.042;14.432;2023-09-19T13:11:44;98031.13;;;36.12;nan
78717;BME280;68045;50.042;14.432;2023-09-19T13:15:52;98027.91;;;35.69;nan
78717;BME280;68045;50.042;14.432;2023-09-19T13:19:53;98026.34;;;34.91;nan
78717;BME280;68045;50.042;14.432;2023-09-19T13:23:56;98026.13;;;36.00;nan
78717;BME280;68045;50.042;14.432;2023-09-19T13:28:16;98022.88;;;33.55;nan
78717;BME280;68045;50.042;14.432;2023-09-19T13:32:17;98020.69;;;31.48;nan
78717;BME280;68045;50.042;14.432;2023-09-19T13:36:18;98023.66;;;32.13;nan
78717;BME280;68045;50.042;14.432;2023-09-19T13:40:19;98021.34;;;31.75;nan
78717;BME280;68045;50.042;14.432;2023-09-19T13:44:20;98014.78;;;32.27;nan
78717;BME280;68045;50.042;14.432;2023-09-19T13:48:21;98027.59;;;32.16;nan
78717;BME280;68045;50.042;14.432;2023-09-19T13:52:22;98024.84;;;29.14;nan
78717;BME280;68045;50.042;14.432;2023-09-19T13:56:23;98029.59;;;27.83;nan
78717;BME280;68045;50.042;14.432;2023-09-19T14:00:25;98021.91;;;27.85;nan
78717;BME280;68045;50.042;14.432;2023-09-19T14:04:26;98018.09;;;27.02;nan
78717;BME280;68045;50.042;14.432;2023-09-19T14:08:29;98023.13;;;27.28;nan
78717;BME280;68045;50.042;14.432;2023-09-19T14:12:30;98023.53;;;27.02;nan
78717;BME280;68045;50.042;14.432;2023-09-19T14:16:31;98013.03;;;26.24;nan
78717;BME280;68045;50.042;14.432;2023-09-19T14:20:32;98020.41;;;26.88;nan
78717;BME280;68045;50.042;14.432;2023-09-19T14:24:33;98015.72;;;26.73;nan
78717;BME280;68045;50.042;14.432;2023-09-19T14:28:35;98021.50;;;26.10;nan
78717;BME280;68045;50.042;14.432;2023-09-19T14:32:36;98019.75;;;25.15;nan
78717;BME280;68045;50.042;14.432;2023-09-19T14:36:37;98029.13;;;24.76;nan
78717;BME280;68045;50.042;14.432;2023-09-19T14:40:39;98033.53;;;25.22;nan
78717;BME280;68045;50.042;14.432;2023-09-19T14:44:40;98019.38;;;25.25;nan
78717;BME280;68045;50.042;14.432;2023-09-19T14:48:41;98016.81;;;25.86;nan
78717;BME280;68045;50.042;14.432;2023-09-19T14:52:42;98026.59;;;25.66;nan
78717;BME280;68045;50.042;14.432;2023-09-19T14:56:44;98028.84;;;24.89;nan
78717;BME280;68045;50.042;14.432;2023-09-19T15:00:45;98042.03;;;24.41;nan
78717;BME280;68045;50.042;14.432;2023-09-19T15:04:46;98024.72;;;25.13;nan
78717;BME280;68045;50.042;14.432;2023-09-19T15:08:48;98024.47;;;25.72;nan
78717;BME280;68045;50.042;14.432;2023-09-19T15:12:49;98030.72;;;25.52;nan
78717;BME280;68045;50.042;14.432;2023-09-19T15:16:49;98031.81;;;25.51;nan
78717;BME280;68045;50.042;14.432;2023-09-19T15:20:50;98019.75;;;25.93;nan
78717;BME280;68045;50.042;14.432;2023-09-19T15:24:51;98017.66;;;26.23;nan
78717;BME280;68045;50.042;14.432;2023-09-19T15:28:52;98027.56;;;25.95;nan
78717;BME280;68045;50.042;14.432;2023-09-19T15:32:55;98031.28;;;26.02;nan
78717;BME280;68045;50.042;14.432;2023-09-19T15:36:56;98032.75;;;26.61;nan
78717;BME280;68045;50.042;14.432;2023-09-19T15:40:58;98030.84;;;26.25;nan
78717;BME280;68045;50.042;14.432;2023-09-19T15:44:58;98037.16;;;25.59;nan
78717;BME280;68045;50.042;14.432;2023-09-19T15:48:59;98043.22;;;25.02;nan
78717;BME280;68045;50.042;14.432;2023-09-19T15:53:01;98039.06;;;24.25;nan
78717;BME280;68045;50.042;14.432;2023-09-19T15:57:02;98034.00;;;23.85;nan
78717;BME280;68045;50.042;14.432;2023-09-19T16:01:06;98040.06;;;23.56;nan
78717;BME280;68045;50.042;14.432;2023-09-19T16:05:10;98044.69;;;23.29;nan
78717;BME280;68045;50.042;14.432;2023-09-19T16:09:12;98050.72;;;23.09;nan
78717;BME280;68045;50.042;14.432;2023-09-19T16:13:15;98046.09;;;22.84;nan
78717;BME280;68045;50.042;14.432;2023-09-19T16:17:15;98046.72;;;22.72;nan
78717;BME280;68045;50.042;14.432;2023-09-19T16:21:17;98054.59;;;22.51;nan
78717;BME280;68045;50.042;14.432;2023-09-19T16:25:21;98062.88;;;22.24;nan
78717;BME280;68045;50.042;14.432;2023-09-19T16:29:22;98066.00;;;22.08;nan
78717;BME280;68045;50.042;14.432;2023-09-19T16:33:25;98066.00;;;22.08;nan
78717;BME280;68045;50.042;14.432;2023-09-19T16:37:26;98060.44;;;21.82;nan
78717;BME280;68045;50.042;14.432;2023-09-19T16:41:27;98059.66;;;21.82;nan
78717;BME280;68045;50.042;14.432;2023-09-19T16:45:28;98063.53;;;21.67;nan
78717;BME280;68045;50.042;14.432;2023-09-19T16:49:29;98062.34;;;21.51;nan
78717;BME280;68045;50.042;14.432;2023-09-19T16:53:31;98074.09;;;21.41;nan
78717;BME280;68045;50.042;14.432;2023-09-19T16:57:31;98087.84;;;21.26;nan
78717;BME280;68045;50.042;14.432;2023-09-19T17:01:32;98085.22;;;21.12;nan
78717;BME280;68045;50.042;14.432;2023-09-19T17:05:33;98091.13;;;21.00;nan
78717;BME280;68045;50.042;14.432;2023-09-19T17:09:34;98092.59;;;20.93;nan
78717;BME280;68045;50.042;14.432;2023-09-19T17:13:35;98089.44;;;20.91;nan
78717;BME280;68045;50.042;14.432;2023-09-19T17:17:36;98089.38;;;20.82;nan
78717;BME280;68045;50.042;14.432;2023-09-19T17:21:37;98084.88;;;20.77;nan
78717;BME280;68045;50.042;14.432;2023-09-19T17:25:38;98089.19;;;20.65;nan
78717;BME280;68045;50.042;14.432;2023-09-19T17:29:39;98107.94;;;20.65;nan
78717;BME280;68045;50.042;14.432;2023-09-19T17:33:40;98103.19;;;20.48;nan
78717;BME280;68045;50.042;14.432;2023-09-19T17:37:41;98116.66;;;20.43;nan
78717;BME280;68045;50.042;14.432;2023-09-19T17:41:42;98107.44;;;20.35;nan
78717;BME280;68045;50.042;14.432;2023-09-19T17:45:43;98110.41;;;20.20;nan
78717;BME280;68045;50.042;14.432;2023-09-19T17:49:44;98114.16;;;20.05;nan
78717;BME280;68045;50.042;14.432;2023-09-19T17:53:46;98117.59;;;19.92;nan
78717;BME280;68045;50.042;14.432;2023-09-19T17:57:47;98121.81;;;19.79;nan
78717;BME280;68045;50.042;14.432;2023-09-19T18:01:48;98127.78;;;19.76;nan
78717;BME280;68045;50.042;14.432;2023-09-19T18:05:51;98120.19;;;19.64;nan
78717;BME280;68045;50.042;14.432;2023-09-19T18:09:53;98123.75;;;19.60;nan
78717;BME280;68045;50.042;14.432;2023-09-19T18:13:56;98132.41;;;19.52;nan
78717;BME280;68045;50.042;14.432;2023-09-19T18:17:57;98141.97;;;19.39;nan
78717;BME280;68045;50.042;14.432;2023-09-19T18:21:58;98143.50;;;19.26;nan
78717;BME280;68045;50.042;14.432;2023-09-19T18:26:04;98146.03;;;19.17;nan
78717;BME280;68045;50.042;14.432;2023-09-19T18:30:08;98149.56;;;19.13;nan
78717;BME280;68045;50.042;14.432;2023-09-19T18:34:09;98159.69;;;19.16;nan
78717;BME280;68045;50.042;14.432;2023-09-19T18:38:10;98156.75;;;19.17;nan
78717;BME280;68045;50.042;14.432;2023-09-19T18:42:10;98162.78;;;19.04;nan
78717;BME280;68045;50.042;14.432;2023-09-19T18:46:12;98164.34;;;18.86;nan
78717;BME280;68045;50.042;14.432;2023-09-19T18:50:13;98160.47;;;18.74;nan
78717;BME280;68045;50.042;14.432;2023-09-19T18:54:14;98165.13;;;18.63;nan
78717;BME280;68045;50.042;14.432;2023-09-19T18:58:17;98166.31;;;18.52;nan
78717;BME280;68045;50.042;14.432;2023-09-19T19:02:17;98174.09;;;18.48;nan
78717;BME280;68045;50.042;14.432;2023-09-19T19:06:20;98171.72;;;18.47;nan
78717;BME280;68045;50.042;14.432;2023-09-19T19:10:21;98163.59;;;18.33;nan
78717;BME280;68045;50.042;14.432;2023-09-19T19:14:22;98174.81;;;18.30;nan
78717;BME280;68045;50.042;14.432;2023-09-19T19:18:23;98177.31;;;18.21;nan
78717;BME280;68045;50.042;14.432;2023-09-19T19:22:29;98172.50;;;18.18;nan
78717;BME280;68045;50.042;14.432;2023-09-19T19:26:30;98175.28;;;18.08;nan
78717;BME280;68045;50.042;14.432;2023-09-19T19:30:31;98182.59;;;17.97;nan
78717;BME280;68045;50.042;14.432;2023-09-19T19:34:32;98179.47;;;17.90;nan
78717;BME280;68045;50.042;14.432;2023-09-19T19:38:34;98176.09;;;17.74;nan
78717;BME280;68045;50.042;14.432;2023-09-19T19:42:34;98181.72;;;17.73;nan
78717;BME280;68045;50.042;14.432;2023-09-19T19:46:36;98172.13;;;17.62;nan
78717;BME280;68045;50.042;14.432;2023-09-19T19:50:38;98173.78;;;17.57;nan
78717;BME280;68045;50.042;14.432;2023-09-19T19:54:39;98176.28;;;17.44;nan
78717;BME280;68045;50.042;14.432;2023-09-19T19:58:40;98184.28;;;17.44;nan
78717;BME280;68045;50.042;14.432;2023-09-19T20:02:43;98189.34;;;17.40;nan
78717;BME280;68045;50.042;14.432;2023-09-19T20:06:44;98196.63;;;17.35;nan
78717;BME280;68045;50.042;14.432;2023-09-19T20:10:46;98201.16;;;17.29;nan
78717;BME280;68045;50.042;14.432;2023-09-19T20:14:46;98198.53;;;17.24;nan
78717;BME280;68045;50.042;14.432;2023-09-19T20:18:47;98193.75;;;17.21;nan
78717;BME280;68045;50.042;14.432;2023-09-19T20:22:49;98197.44;;;17.25;nan
78717;BME280;68045;50.042;14.432;2023-09-19T20:26:50;98205.16;;;17.26;nan
78717;BME280;68045;50.042;14.432;2023-09-19T20:30:52;98203.34;;;17.17;nan
78717;BME280;68045;50.042;14.432;2023-09-19T20:34:53;98210.28;;;17.18;nan
78717;BME280;68045;50.042;14.432;2023-09-19T20:38:55;98207.09;;;17.16;nan
78717;BME280;68045;50.042;14.432;2023-09-19T20:42:55;98211.13;;;17.13;nan
78717;BME280;68045;50.042;14.432;2023-09-19T20:46:56;98206.09;;;17.01;nan
78717;BME280;68045;50.042;14.432;2023-09-19T20:51:08;98203.44;;;16.91;nan
78717;BME280;68045;50.042;14.432;2023-09-19T20:55:08;98212.81;;;16.84;nan
78717;BME280;68045;50.042;14.432;2023-09-19T20:59:10;98218.44;;;16.67;nan
78717;BME280;68045;50.042;14.432;2023-09-19T21:03:12;98215.81;;;16.57;nan
78717;BME280;68045;50.042;14.432;2023-09-19T21:07:16;98222.47;;;16.49;nan
78717;BME280;68045;50.042;14.432;2023-09-19T21:11:19;98225.16;;;16.44;nan
78717;BME280;68045;50.042;14.432;2023-09-19T21:15:23;98217.72;;;16.36;nan
78717;BME280;68045;50.042;14.432;2023-09-19T21:19:26;98220.88;;;16.43;nan
78717;BME280;68045;50.042;14.432;2023-09-19T21:23:27;98218.47;;;16.41;nan
78717;BME280;68045;50.042;14.432;2023-09-19T21:27:27;98231.81;;;16.36;nan
78717;BME280;68045;50.042;14.432;2023-09-19T21:31:28;98227.81;;;16.39;nan
78717;BME280;68045;50.042;14.432;2023-09-19T21:35:29;98224.91;;;16.35;nan
78717;BME280;68045;50.042;14.432;2023-09-19T21:39:30;98219.81;;;16.39;nan
78717;BME280;68045;50.042;14.432;2023-09-19T21:43:31;98223.28;;;16.34;nan
78717;BME280;68045;50.042;14.432;2023-09-19T21:47:32;98226.50;;;16.36;nan
78717;BME280;68045;50.042;14.432;2023-09-19T21:51:32;98221.44;;;16.30;nan
78717;BME280;68045;50.042;14.432;2023-09-19T21:55:34;98220.88;;;16.33;nan
78717;BME280;68045;50.042;14.432;2023-09-19T21:59:35;98217.69;;;16.20;nan
78717;BME280;68045;50.042;14.432;2023-09-19T22:03:39;98216.91;;;16.20;nan
78717;BME280;68045;50.042;14.432;2023-09-19T22:07:40;98217.97;;;16.04;nan
78717;BME280;68045;50.042;14.432;2023-09-19T22:11:44;98213.72;;;15.87;nan
78717;BME280;68045;50.042;14.432;2023-09-19T22:15:49;98206.50;;;15.68;nan
78717;BME280;68045;50.042;14.432;2023-09-19T22:19:49;98212.09;;;15.66;nan
78717;BME280;68045;50.042;14.432;2023-09-19T22:23:54;98211.53;;;15.59;nan
78717;BME280;68045;50.042;14.432;2023-09-19T22:27:55;98220.56;;;15.53;nan